Laredo, TX

3:12 PM CST en Febrero 01, 2015 (GMT -0600)
Laredo International | Change Station
CLOSE
Current Station
Aeropuerto
Location: Laredo,
Altura: 509 ft
Estaciones meteorológicas cercanas

Alt 509 ft 27.54 °N, 99.46 °W | Updated 16 minutes ago

Muy nublado
Muy nublado
72 ° F
Sensación térmica 72 ° F
N
9
Viento Variable Viento desde NO

Hoy
Alta -- | Baja -- ° F
--% Posibilidad de precipitaciones
Ayer
Alta -- | Baja -- ° F
Precip. -- pul
7:24 AM 6:18 PM
Gibosa creciente, 96% visible
Presión 29.91 pul
Visibilidad 10.0 Millas
Nubes Despejado
Punto de rocío 57 ° F
Humedad 59%
Precipitaciones 0.00 pul
Espesor de la nieve No disponible.
UV 4 de una escala de 12
Polen 8.40 de una escala de 12
Calidad del aire No disponible.
Flu Activity No disponible.
METAR KLRD 012056Z 32008KT 10SM CLR 22/14 A2994 RMK AO2 56012 T02220138 SLP128

More Conditions Fewer Conditions

Presión 29.91 pul
Visibilidad 10.0 Millas
Nubes Despejado
Punto de rocío 57 ° F
Humedad 59%
Precipitaciones 0.00 pul
Espesor de la nieve No disponible.
UV 4 de una escala de 12
Polen 8.40 de una escala de 12
Calidad del aire No disponible.
Flu Activity No disponible.
METAR KLRD 012056Z 32008KT 10SM CLR 22/14 A2994 RMK AO2 56012 T02220138 SLP128

More Conditions Fewer Conditions

10-Day Weather Forecast

Almanac

Astronomía

Feb. 01, 2015 Salida Puesta
Hora real
Crepúsculo civil
Crepúsculo náutico
Crepúsculo astronómico
Luna
Horas de luz
Horas de luz
Tomorrow will be .
, % of the Moon is Illuminated

Extremos de hoy

Máximos del estado Bajos del estado

Community

WunderPhotos

Upload Photos

1,792,535 ¡fotos cargadas!

WunderBlogs® & News

Nearby

Calidad del aire

  Calidad del aire Índice AQ Contaminante
Not available.

Grosos de nieve

Estación Profundido Altura

Actividad de terremotos

Ciudad Distance Mag. Tiempo y dato
Magnitud mínima muestra es 2,5.

Temperaturas de aguas costeras

Lugar Temperatura

Estaciones meteorológicas cercanas